CDT,Max TemperatureF,Mean TemperatureF,Min TemperatureF,Max Dew PointF,MeanDew PointF,Min DewpointF,Max Humidity, Mean Humidity, Min Humidity, Max Sea Level PressureIn, Mean Sea Level PressureIn, Min Sea Level PressureIn, Max VisibilityMiles, Mean VisibilityMiles, Min VisibilityMiles, Max Wind SpeedMPH, Mean Wind SpeedMPH, Max Gust SpeedMPH,PrecipitationIn, CloudCover, Events, WindDirDegrees
2014-4-1,35,27,19,32,17,10,89,74,59,30.19,29.78,29.39,10,6,1,29,16,39,0.04,5,Rain-Snow,316
2014-4-2,38,28,17,20,17,11,80,64,47,30.27,30.20,30.12,10,10,10,12,6,15,0.00,2,,36
2014-4-3,36,32,27,29,26,22,85,71,56,30.13,29.94,29.84,10,5,0,16,10,23,0.22,8,Fog-Snow,47
2014-4-4,42,34,26,26,23,21,84,65,45,30.09,29.89,29.78,10,6,0,20,12,25,0.14,5,Fog-Snow,346
2014-4-5,45,33,21,35,28,20,92,75,58,30.12,30.06,29.96,10,9,4,23,9,28,T,2,,185
2014-4-6,60,48,35,39,34,29,82,62,42,29.94,29.87,29.83,10,10,8,12,5,15,0.00,2,,160
2014-4-7,58,48,37,40,35,28,85,60,35,29.88,29.84,29.79,10,9,4,21,8,25,0.00,3,,334
2014-4-8,52,42,32,31,27,24,75,55,35,30.06,29.99,29.88,10,10,10,18,10,24,0.00,0,,319
2014-4-9,70,51,32,46,35,25,75,57,39,29.99,29.71,29.47,10,10,10,32,13,39,0.00,2,,190
2014-4-10,61,51,40,38,26,19,58,40,21,29.95,29.81,29.62,10,10,10,33,13,40,T,2,,297
2014-4-11,64,52,39,39,31,25,82,52,22,29.99,29.96,29.92,10,10,10,18,6,24,0.01,4,,303
2014-4-12,55,48,41,41,38,30,89,67,44,29.95,29.81,29.72,10,10,5,21,11,29,0.16,6,Rain,69
2014-4-13,41,36,30,36,30,19,85,70,54,30.05,29.91,29.81,10,10,10,25,14,36,0.00,6,,350
2014-4-14,37,30,22,18,11,6,63,46,29,30.19,30.11,29.98,10,10,10,28,16,36,0.00,2,,337
2014-4-15,36,26,16,8,5,0,67,45,23,30.24,30.17,30.09,10,10,10,13,6,16,0.00,2,,312
2014-4-16,32,31,29,27,25,12,92,67,41,30.12,30.01,29.92,10,3,0,18,13,28,0.98,8,Fog-Snow,59
2014-4-17,44,35,25,23,21,19,81,62,43,30.37,30.26,30.07,10,10,10,16,6,22,0.00,3,,345
2014-4-18,46,33,19,27,24,19,92,71,49,30.42,30.34,30.19,10,9,6,16,7,22,0.00,4,,114
2014-4-19,63,51,38,48,37,26,93,73,53,30.16,30.04,30.00,10,7,1,21,11,30,0.01,2,Rain,148
2014-4-20,75,54,33,40,35,29,96,58,19,30.09,30.03,29.96,10,6,0,10,3,13,0.00,1,Fog,58
2014-4-21,65,52,39,39,34,26,66,49,32,30.13,30.00,29.90,10,10,10,29,13,35,0.00,2,,319
2014-4-22,60,46,32,32,29,25,82,55,28,30.20,30.14,30.08,10,10,10,14,6,20,0.00,0,,2
2014-4-23,47,44,40,37,33,23,86,64,41,30.11,30.03,29.94,10,8,2,18,10,23,0.38,6,Rain,122
2014-4-24,45,41,36,39,38,35,92,84,76,29.93,29.78,29.69,10,7,2,12,6,18,0.26,7,Rain,105
2014-4-25,62,47,31,41,34,28,96,71,46,29.96,29.78,29.69,10,5,0,20,7,25,0.00,3,Fog,321
2014-4-26,56,45,34,37,30,28,82,59,35,30.06,30.00,29.94,10,10,10,20,9,29,0.11,1,Rain,85
2014-4-27,43,41,38,37,35,34,85,78,70,29.95,29.79,29.67,10,6,2,24,16,37,1.88,8,Rain-Thunderstorm,88
2014-4-28,45,44,42,38,37,32,82,75,67,29.78,29.68,29.63,10,5,2,24,15,33,1.58,8,Rain,82
2014-4-29,46,42,37,36,32,28,79,66,53,29.86,29.78,29.72,10,9,5,24,15,35,0.11,8,Rain-Snow,31
2014-4-30,46,42,38,38,36,33,86,79,71,29.85,29.81,29.77,10,10,4,22,13,25,0.02,8,Rain,348